Craigmyle, Canada
Current Conditions -  °F | °C
As of 1:00 PM on Thursday 18 Dec 2014 (Local Time) from CYQF Reporting Station
Broken Clouds Broken Clouds  
Wind Chill: 21°   Ceiling: 24000
Heat Index: 21°   Visibility: 15mi
Dew Point: 18°   Wind: 3mph
Humidity: 86%   Direction: 190°S
Pressure: 29.8"   Gusts: NA
Location:  51.67°N, 112.23°W
Report Text: CYQF 182000Z 19003KT 15SM BKN240 M06/M08 A2980 RMK CI6 SLP152
Loading
Personal Weather Stations






























Interactive Weather Map New forecast layout! Learn more

10-Day Weather Forecast

Advertisements
Track Severe Weather on mobile